Time;durP1;ratioP1;P1;durP2;ratioP2;P2;SDS_P1;SDS_P2;PMS_P1;PMS_P2;Temp;Humidity;BMP_temperature;BMP_pressure;BME280_temperature;BME280_humidity;BME280_pressure;Samples;Min_cycle;Max_cycle;Signal;HPM_P1;HPM_P2
2022/05/21 00:00:20;;;;;;;33.00;30.40;;;;;;;10.75;100.00;101345.16;4975927;28;20141;-84
2022/05/21 00:02:49;;;;;;;33.50;30.90;;;;;;;10.79;100.00;101334.97;4970762;28;20050;-84
2022/05/21 00:05:17;;;;;;;33.47;30.67;;;;;;;10.63;100.00;101343.22;4962597;28;20440;-80
2022/05/21 00:07:45;;;;;;;37.58;34.00;;;;;;;10.58;100.00;101341.13;4955780;29;20052;-81
2022/05/21 00:10:19;;;;;;;31.58;29.17;;;;;;;10.48;100.00;101333.47;4961641;28;20393;-82
2022/05/21 00:12:47;;;;;;;30.77;28.40;;;;;;;10.36;100.00;101331.53;4967149;28;20055;-84
2022/05/21 00:15:21;;;;;;;29.73;27.50;;;;;;;10.49;100.00;101332.47;4961385;28;20082;-84
2022/05/21 00:17:55;;;;;;;32.63;30.15;;;;;;;10.26;100.00;101321.19;4962542;28;20155;-85
2022/05/21 00:23:14;;;;;;;35.28;32.40;;;;;;;10.21;100.00;101332.38;4975048;28;20129;-83
2022/05/21 00:25:48;;;;;;;33.92;31.33;;;;;;;10.02;100.00;101331.16;4974538;28;20113;-84
2022/05/21 00:28:16;;;;;;;30.45;28.05;;;;;;;10.37;100.00;101328.66;4973140;28;20471;-82
2022/05/21 00:30:44;;;;;;;32.40;29.90;;;;;;;10.09;100.00;101329.38;4976068;28;20106;-82
2022/05/21 00:33:20;;;;;;;33.33;30.92;;;;;;;10.20;100.00;101321.94;4972415;28;20105;-84
2022/05/21 00:35:50;;;;;;;32.92;30.63;;;;;;;10.21;100.00;101321.75;4975754;28;20061;-83
2022/05/21 00:38:40;;;;;;;30.17;27.80;;;;;;;10.21;100.00;101331.53;4967466;28;20055;-84
2022/05/21 00:41:13;;;;;;;28.95;26.73;;;;;;;9.88;100.00;101329.34;4959375;28;20047;-84
2022/05/21 00:43:51;;;;;;;30.77;28.60;;;;;;;10.36;100.00;101323.56;4974910;28;20054;-84
2022/05/21 00:46:25;;;;;;;31.52;28.98;;;;;;;10.76;100.00;101328.19;4970959;28;20053;-82
2022/05/21 00:49:00;;;;;;;30.17;28.17;;;;;;;11.04;100.00;101314.09;4975481;28;20460;-84
2022/05/21 00:51:34;;;;;;;31.15;29.05;;;;;;;10.86;100.00;101311.09;4974908;28;20051;-84
2022/05/21 00:54:10;;;;;;;28.95;26.98;;;;;;;10.62;100.00;101304.38;4974265;28;20074;-84
2022/05/21 00:57:00;;;;;;;29.67;27.55;;;;;;;10.79;100.00;101300.44;4971638;28;20117;-84
2022/05/21 00:59:47;;;;;;;30.50;28.45;;;;;;;10.69;100.00;101302.59;4971278;28;20463;-82
2022/05/21 01:02:16;;;;;;;28.17;26.27;;;;;;;10.75;100.00;101300.00;4970805;28;20130;-83
2022/05/21 01:04:56;;;;;;;29.15;27.15;;;;;;;10.31;100.00;101298.38;4975423;28;20050;-81
2022/05/21 01:07:25;;;;;;;30.08;27.77;;;;;;;10.45;100.00;101295.88;4976093;28;20124;-84
2022/05/21 01:10:03;;;;;;;30.27;28.17;;;;;;;10.49;100.00;101291.81;4974741;28;20486;-84
2022/05/21 01:12:38;;;;;;;29.27;27.17;;;;;;;10.30;100.00;101291.44;4974987;28;20054;-84
2022/05/21 01:15:08;;;;;;;29.95;27.95;;;;;;;10.35;100.00;101295.34;4960936;28;20457;-83
2022/05/21 01:17:36;;;;;;;29.70;27.63;;;;;;;10.17;100.00;101290.47;4969513;28;20059;-84
2022/05/21 01:20:11;;;;;;;29.38;27.38;;;;;;;10.02;100.00;101287.88;4977799;28;20043;-83
2022/05/21 01:22:47;;;;;;;27.38;25.48;;;;;;;9.77;100.00;101288.22;4978683;28;20106;-83
2022/05/21 01:25:31;;;;;;;28.77;26.70;;;;;;;9.99;100.00;101283.75;4965257;28;20047;-84
2022/05/21 01:28:06;;;;;;;30.15;27.75;;;;;;;9.93;100.00;101278.38;4972206;28;20065;-83
2022/05/21 01:30:40;;;;;;;29.13;27.23;;;;;;;9.71;100.00;101273.00;4974876;28;20054;-81
2022/05/21 01:33:11;;;;;;;30.00;27.80;;;;;;;9.74;100.00;101282.44;4977968;28;20051;-84
2022/05/21 01:35:44;;;;;;;31.90;29.40;;;;;;;9.72;100.00;101285.28;4977910;28;20118;-84
2022/05/21 01:38:15;;;;;;;31.02;28.92;;;;;;;9.26;100.00;101282.03;4977893;28;20046;-81
2022/05/21 01:40:44;;;;;;;31.55;29.23;;;;;;;9.23;100.00;101285.06;4978674;28;20113;-84
2022/05/21 01:45:59;;;;;;;30.23;27.92;;;;;;;9.86;100.00;101276.47;4959490;28;20518;-81
2022/05/21 01:48:28;;;;;;;27.48;25.48;;;;;;;9.86;100.00;101275.63;4978295;28;20046;-84
2022/05/21 01:51:06;;;;;;;28.38;26.30;;;;;;;10.05;100.00;101268.91;4978448;28;20500;-84
2022/05/21 01:53:42;;;;;;;29.63;27.40;;;;;;;10.01;100.00;101268.44;4977243;28;20061;-82
2022/05/21 01:56:18;;;;;;;28.88;26.70;;;;;;;10.01;100.00;101271.09;4977335;28;20061;-84
2022/05/21 01:58:45;;;;;;;28.40;26.40;;;;;;;9.95;100.00;101273.69;4977646;28;20464;-84
2022/05/21 02:01:13;;;;;;;31.50;29.17;;;;;;;10.00;100.00;101266.00;5108506;22;20064;-84
2022/05/21 02:03:53;;;;;;;29.23;27.30;;;;;;;9.36;100.00;101264.03;5027788;28;20111;-85
2022/05/21 02:06:38;;;;;;;29.05;27.15;;;;;;;9.26;100.00;101263.47;5010855;28;20449;-84
2022/05/21 02:09:14;;;;;;;28.48;26.55;;;;;;;9.40;100.00;101263.47;5023750;28;20060;-82
2022/05/21 02:11:41;;;;;;;27.95;26.05;;;;;;;9.23;100.00;101253.25;5023073;28;20045;-84
2022/05/21 02:14:10;;;;;;;30.00;27.73;;;;;;;9.22;100.00;101257.72;5016068;28;20046;-85
2022/05/21 02:16:37;;;;;;;29.35;27.27;;;;;;;9.20;100.00;101248.31;5016582;28;20100;-81
2022/05/21 02:19:05;;;;;;;31.73;29.13;;;;;;;9.31;100.00;101247.84;5031750;28;20402;-84
2022/05/21 02:21:41;;;;;;;30.67;28.48;;;;;;;9.50;100.00;101247.28;5019705;28;20050;-84
2022/05/21 02:24:10;;;;;;;31.75;29.35;;;;;;;9.32;100.00;101241.53;5020764;28;20414;-81
2022/05/21 02:26:39;;;;;;;30.45;28.35;;;;;;;9.24;100.00;101237.16;5016855;28;20066;-81
2022/05/21 02:29:08;;;;;;;31.35;29.05;;;;;;;9.24;100.00;101234.53;5018866;28;20124;-81
2022/05/21 02:31:35;;;;;;;28.77;26.95;;;;;;;9.50;100.00;101236.69;5015200;28;20081;-82
2022/05/21 02:34:02;;;;;;;29.95;27.75;;;;;;;9.30;100.00;101240.91;5015454;28;20458;-81
2022/05/21 02:39:29;;;;;;;28.83;26.80;;;;;;;9.61;100.00;101238.84;5016617;28;20143;-80
2022/05/21 02:45:06;;;;;;;27.90;25.95;;;;;;;9.41;100.00;101253.72;5015255;28;20139;-80
2022/05/21 02:47:40;;;;;;;28.50;26.60;;;;;;;9.54;100.00;101258.34;5019477;28;20046;-81
2022/05/21 02:50:08;;;;;;;30.15;28.25;;;;;;;9.80;100.00;101245.38;5013632;28;20112;-84
2022/05/21 02:52:37;;;;;;;29.85;27.95;;;;;;;9.64;100.00;101243.78;5027458;28;20115;-84
2022/05/21 02:55:07;;;;;;;28.20;26.20;;;;;;;9.64;100.00;101246.41;5018479;28;20497;-83
2022/05/21 02:57:37;;;;;;;28.35;26.30;;;;;;;9.42;100.00;101247.38;5016035;28;20112;-81
2022/05/21 03:00:09;;;;;;;29.92;27.60;;;;;;;9.49;100.00;101252.78;5015362;28;20049;-83
2022/05/21 03:02:37;;;;;;;29.13;27.00;;;;;;;9.59;100.00;101247.97;5021871;28;20156;-80
2022/05/21 03:05:17;;;;;;;28.45;26.63;;;;;;;9.71;100.00;101248.31;5017614;28;20128;-83
2022/05/21 03:07:50;;;;;;;28.88;27.17;;;;;;;9.71;100.00;101250.97;5014525;28;20403;-81
2022/05/21 03:10:22;;;;;;;29.15;27.30;;;;;;;9.93;100.00;101244.69;5014664;28;20046;-81
2022/05/21 03:12:58;;;;;;;30.30;28.23;;;;;;;9.69;100.00;101256.47;5019397;28;20045;-80
2022/05/21 03:15:30;;;;;;;30.92;29.02;;;;;;;9.69;100.00;101258.31;5016228;28;20046;-80
2022/05/21 03:17:57;;;;;;;30.90;28.77;;;;;;;9.84;100.00;101251.97;5014515;28;20050;-81
2022/05/21 03:20:31;;;;;;;31.35;29.45;;;;;;;9.53;100.00;101257.53;5013658;28;20049;-81
2022/05/21 03:23:00;;;;;;;30.02;28.23;;;;;;;9.64;100.00;101257.03;5014004;28;20057;-83
2022/05/21 03:25:34;;;;;;;32.20;30.10;;;;;;;9.76;100.00;101252.06;5015481;28;20124;-85
2022/05/21 03:28:03;;;;;;;31.63;29.60;;;;;;;10.07;100.00;101253.59;5002551;28;20046;-80
2022/05/21 03:30:38;;;;;;;29.70;27.83;;;;;;;10.29;100.00;101257.94;5014212;28;20058;-81
2022/05/21 03:33:05;;;;;;;32.67;30.67;;;;;;;10.35;100.00;101255.50;5017623;28;20054;-83
2022/05/21 03:35:34;;;;;;;30.33;28.38;;;;;;;10.49;100.00;101260.75;5016839;28;20049;-83
2022/05/21 03:38:10;;;;;;;30.05;28.25;;;;;;;10.55;100.00;101259.97;5013557;28;20524;-83
2022/05/21 03:40:46;;;;;;;30.98;29.27;;;;;;;11.09;100.00;101265.66;5005324;28;20042;-81
2022/05/21 03:43:16;;;;;;;27.23;25.60;;;;;;;10.81;100.00;101253.25;5008659;28;20050;-82
2022/05/21 03:45:43;;;;;;;31.35;29.20;;;;;;;10.91;100.00;101253.69;5010503;28;20054;-82
2022/05/21 03:48:15;;;;;;;30.75;28.95;;;;;;;10.95;100.00;101254.13;5009853;28;20050;-81
2022/05/21 03:50:44;;;;;;;;;;;;;;;11.04;100.00;101252.13;5016198;28;20405;-84
2022/05/21 03:53:16;;;;;;;27.90;26.13;;;;;;;11.29;100.00;101248.00;5017613;28;19922;-83
2022/05/21 03:55:48;;;;;;;26.13;24.52;;;;;;;11.40;100.00;101251.91;5013662;28;20476;-84
2022/05/21 03:58:30;;;;;;;23.95;22.65;;;;;;;11.38;100.00;101243.31;5018229;28;20046;-82
2022/05/21 04:00:56;;;;;;;25.80;24.17;;;;;;;11.68;100.00;101249.16;4966466;28;1177791;-84
2022/05/21 04:03:25;;;;;;;25.92;24.42;;;;;;;11.74;100.00;101245.72;5010703;28;20412;-81
2022/05/21 04:05:56;;;;;;;24.55;23.00;;;;;;;11.82;100.00;101244.69;5013912;28;20129;-82
2022/05/21 04:08:28;;;;;;;25.05;23.27;;;;;;;12.02;100.00;101248.25;5018046;28;20057;-83
2022/05/21 04:11:02;;;;;;;24.67;23.27;;;;;;;12.08;100.00;101239.44;5010792;28;20049;-82
2022/05/21 04:13:35;;;;;;;24.98;23.05;;;;;;;12.31;100.00;101238.22;5009438;28;20053;-81
2022/05/21 04:16:02;;;;;;;27.48;25.80;;;;;;;12.26;100.00;101244.19;5000343;28;20054;-85
2022/05/21 04:18:31;;;;;;;25.90;24.50;;;;;;;12.48;100.00;101246.63;5014066;28;20481;-84
2022/05/21 04:20:58;;;;;;;26.90;25.27;;;;;;;12.44;100.00;101242.75;5004480;28;20058;-83
2022/05/21 04:23:26;;;;;;;25.35;23.92;;;;;;;12.76;100.00;101249.88;5006218;28;20397;-82
2022/05/21 04:25:55;;;;;;;27.77;26.25;;;;;;;12.92;100.00;101258.47;5004427;28;20046;-85
2022/05/21 04:28:31;;;;;;;26.33;24.83;;;;;;;13.00;100.00;101259.06;4995881;28;20581;-85
2022/05/21 04:30:59;;;;;;;25.38;23.95;;;;;;;13.15;100.00;101258.84;4995400;28;20058;-83
2022/05/21 04:33:26;;;;;;;26.05;24.63;;;;;;;13.36;100.00;101255.09;5005365;28;20090;-84
2022/05/21 04:38:39;;;;;;;25.77;24.38;;;;;;;13.53;100.00;101255.47;5003706;28;20048;-83
2022/05/21 04:41:08;;;;;;;25.00;23.63;;;;;;;13.58;100.00;101257.47;5001959;28;20143;-84
2022/05/21 04:43:41;;;;;;;25.23;23.83;;;;;;;13.78;100.00;101252.88;5001324;28;20050;-85
2022/05/21 04:46:24;;;;;;;25.98;24.40;;;;;;;13.91;100.00;101244.75;5011062;28;20068;-85
2022/05/21 04:49:01;;;;;;;26.30;24.85;;;;;;;14.05;100.00;101250.84;5012019;28;20388;-84
2022/05/21 04:51:42;;;;;;;25.88;24.48;;;;;;;14.19;100.00;101256.91;5014074;28;20081;-82
2022/05/21 04:54:14;;;;;;;26.45;24.70;;;;;;;14.23;100.00;101255.47;5023538;28;20046;-85
2022/05/21 04:56:47;;;;;;;;;;;;;;;14.33;100.00;101249.63;5007397;28;20054;-85
2022/05/21 04:59:31;;;;;;;25.27;23.42;;;;;;;14.55;100.00;101258.09;5018749;28;19905;-87
2022/05/21 05:02:00;;;;;;;24.50;23.00;;;;;;;14.65;100.00;101250.41;5001694;28;20050;-83
2022/05/21 05:04:40;;;;;;;25.20;23.65;;;;;;;14.73;100.00;101260.81;5026064;28;20060;-88
2022/05/21 05:07:38;;;;;;;24.55;23.15;;;;;;;14.75;100.00;101256.06;5018526;28;20045;-83
2022/05/21 05:10:08;;;;;;;24.98;23.48;;;;;;;14.99;100.00;101253.56;5025176;28;20053;-82
2022/05/21 05:15:51;;;;;;;32.28;30.55;;;;;;;15.10;100.00;101259.00;5008318;28;20476;-83
2022/05/21 05:18:23;;;;;;;27.67;26.27;;;;;;;15.39;100.00;101237.88;5013714;28;20064;-85
2022/05/21 05:28:34;;;;;;;25.92;24.42;;;;;;;16.01;100.00;101230.47;4954766;28;20093;-84
2022/05/21 05:31:46;;;;;;;26.77;25.00;;;;;;;16.25;100.00;101233.19;4863563;29;20065;-83
2022/05/21 05:34:15;;;;;;;26.30;24.80;;;;;;;16.42;100.00;101231.44;4858392;29;20057;-86
2022/05/21 05:36:42;;;;;;;24.48;23.08;;;;;;;16.59;100.00;101228.09;4881819;29;20474;-84
2022/05/21 05:39:21;;;;;;;25.88;24.38;;;;;;;17.02;100.00;101226.91;4912134;29;20134;-83
2022/05/21 05:41:51;;;;;;;29.67;27.63;;;;;;;18.01;100.00;101211.38;4990506;28;20046;-79
2022/05/21 05:44:19;;;;;;;25.38;23.88;;;;;;;17.02;100.00;101224.22;5022686;28;20057;-79
2022/05/21 05:46:47;;;;;;;25.75;24.17;;;;;;;17.26;100.00;101222.31;5017306;28;20045;-82
2022/05/21 05:49:20;;;;;;;25.23;23.70;;;;;;;17.32;100.00;101216.00;5017637;28;20038;-83
2022/05/21 05:51:47;;;;;;;24.35;23.05;;;;;;;17.48;100.00;101204.47;5017071;28;20049;-80
2022/05/21 05:54:22;;;;;;;26.27;24.52;;;;;;;17.87;100.00;101204.66;5018087;28;20108;-83
2022/05/21 05:56:50;;;;;;;25.63;24.23;;;;;;;17.90;100.00;101204.19;5017314;28;20137;-83
2022/05/21 06:04:46;;;;;;;26.00;24.50;;;;;;;18.35;100.00;101215.94;5009026;28;20589;-80
2022/05/21 06:07:14;;;;;;;25.35;23.50;;;;;;;18.50;100.00;101211.59;5017369;28;20058;-80
2022/05/21 06:09:41;;;;;;;26.90;25.40;;;;;;;19.05;100.00;101215.31;5023171;28;20110;-82
2022/05/21 06:12:09;;;;;;;25.38;23.98;;;;;;;19.04;100.00;101205.63;5017373;28;20052;-80
2022/05/21 06:14:36;;;;;;;26.23;24.67;;;;;;;19.50;100.00;101205.34;5020017;28;20540;-82
2022/05/21 06:17:03;;;;;;;25.92;24.40;;;;;;;19.87;100.00;101190.09;5026912;28;20046;-80
2022/05/21 06:19:30;;;;;;;26.80;25.30;;;;;;;20.03;100.00;101184.81;5028599;28;20072;-80
2022/05/21 06:21:59;;;;;;;26.40;24.88;;;;;;;20.33;100.00;101184.25;5019359;28;20445;-81
2022/05/21 06:24:26;;;;;;;26.70;24.88;;;;;;;20.33;97.49;101176.97;5016569;28;20128;-81
2022/05/21 06:26:54;;;;;;;28.67;26.67;;;;;;;20.64;95.12;101176.38;5022550;28;20049;-83
2022/05/21 06:29:21;;;;;;;26.90;25.40;;;;;;;20.86;95.49;101173.50;5024663;28;20045;-84
2022/05/21 06:31:48;;;;;;;27.60;26.10;;;;;;;20.76;95.64;101176.97;5020174;28;20133;-80
2022/05/21 06:34:14;;;;;;;27.58;25.58;;;;;;;20.90;97.04;101175.41;5018821;28;20551;-80
2022/05/21 06:36:41;;;;;;;27.25;25.75;;;;;;;20.98;84.75;101174.91;5016001;28;20112;-83
2022/05/21 06:39:09;;;;;;;28.52;26.83;;;;;;;21.03;83.10;101174.13;5024063;28;20049;-82
2022/05/21 06:41:36;;;;;;;28.52;26.92;;;;;;;21.14;90.96;101185.75;5015140;28;20046;-83
2022/05/21 06:44:05;;;;;;;33.53;31.52;;;;;;;20.99;94.62;101186.50;5031589;28;20547;-80
2022/05/21 06:46:32;;;;;;;31.38;29.40;;;;;;;21.21;90.78;101186.31;5029423;28;20042;-81
2022/05/21 06:48:58;;;;;;;29.67;27.80;;;;;;;21.05;92.92;101183.56;5021699;28;20417;-81
2022/05/21 06:51:25;;;;;;;29.80;28.00;;;;;;;20.86;95.34;101168.91;5016705;28;20045;-81
2022/05/21 06:53:53;;;;;;;32.10;30.10;;;;;;;20.84;97.73;101162.97;5022969;28;20049;-83
2022/05/21 06:56:21;;;;;;;31.08;29.00;;;;;;;20.54;100.00;101163.63;5018978;28;20045;-84
2022/05/21 06:58:50;;;;;;;28.48;26.52;;;;;;;21.37;97.35;101154.81;5021897;28;20077;-81
2022/05/21 07:01:17;;;;;;;29.15;27.45;;;;;;;21.78;91.02;101163.75;5019113;28;20502;-81
2022/05/21 07:03:45;;;;;;;28.83;27.00;;;;;;;21.25;91.80;101163.91;5019731;28;20509;-84
2022/05/21 07:08:56;;;;;;;28.23;26.63;;;;;;;21.35;77.66;101151.53;5023364;28;20052;-80
2022/05/21 07:11:27;;;;;;;28.70;27.10;;;;;;;21.40;82.50;101149.66;5017599;28;20049;-83
2022/05/21 07:13:54;;;;;;;28.83;27.13;;;;;;;21.35;88.35;101146.13;5017032;28;20073;-80
2022/05/21 07:16:38;;;;;;;;;;;;;;;;;;;;;
2022/05/21 07:19:05;;;;;;;29.77;27.92;;;;;;;21.12;91.84;101132.03;5020556;28;20051;-81
2022/05/21 07:21:33;;;;;;;29.52;27.83;;;;;;;21.71;86.48;101130.78;5026124;28;20061;-83
2022/05/21 07:24:00;;;;;;;31.52;29.73;;;;;;;21.33;89.03;101122.09;5025827;28;20053;-80
2022/05/21 07:26:30;;;;;;;31.63;29.88;;;;;;;22.00;86.70;101127.50;5024149;28;20061;-81
2022/05/21 07:28:58;;;;;;;30.95;29.08;;;;;;;22.29;82.31;101125.06;5021458;28;20045;-83
2022/05/21 07:31:27;;;;;;;30.58;28.75;;;;;;;22.36;73.20;101133.69;5021079;28;20552;-80
2022/05/21 07:33:54;;;;;;;28.83;27.13;;;;;;;22.44;74.14;101124.22;5017330;28;20065;-84
2022/05/21 07:36:20;;;;;;;30.67;28.95;;;;;;;22.41;70.15;101117.44;5019104;28;20054;-81
2022/05/21 07:38:47;;;;;;;30.35;28.58;;;;;;;22.62;72.51;101116.28;5018185;28;20046;-81
2022/05/21 07:41:16;;;;;;;31.63;29.73;;;;;;;22.54;76.16;101122.28;5018769;28;20445;-84
2022/05/21 07:43:44;;;;;;;29.05;27.35;;;;;;;22.57;75.10;101119.03;5014342;28;20393;-80
2022/05/21 07:46:11;;;;;;;28.90;26.98;;;;;;;22.94;73.08;101119.69;5016129;28;20050;-84
2022/05/21 07:48:38;;;;;;;30.48;28.58;;;;;;;22.49;74.55;101118.78;5016656;28;20532;-81
2022/05/21 07:51:06;;;;;;;31.52;29.73;;;;;;;22.62;77.69;101110.06;5013825;28;20112;-83
2022/05/21 07:53:37;;;;;;;29.17;27.42;;;;;;;22.76;69.67;101108.41;5016514;28;20555;-80
2022/05/21 07:56:04;;;;;;;29.60;27.70;;;;;;;22.67;75.05;101109.25;5018356;28;20107;-84
2022/05/21 07:58:32;;;;;;;28.40;26.70;;;;;;;23.13;73.97;101106.34;5016125;28;20399;-80
2022/05/21 08:01:03;;;;;;;28.25;26.65;;;;;;;23.30;74.46;101104.88;5013975;28;20113;-81
2022/05/21 08:03:30;;;;;;;28.75;27.15;;;;;;;22.86;76.11;101105.63;5018013;28;20046;-84
2022/05/21 08:05:57;;;;;;;29.58;27.77;;;;;;;23.25;59.61;101104.09;5013915;28;20437;-82
2022/05/21 08:08:25;;;;;;;29.92;28.13;;;;;;;23.32;60.26;101101.84;5020210;28;20048;-80
2022/05/21 08:10:52;;;;;;;31.25;29.30;;;;;;;22.98;67.83;101105.31;5019937;28;20060;-80
2022/05/21 08:13:21;;;;;;;31.38;29.52;;;;;;;23.05;69.33;101096.88;5019970;28;20065;-84
2022/05/21 08:15:48;;;;;;;30.38;28.67;;;;;;;22.17;79.05;101093.69;5019660;28;20061;-80
2022/05/21 08:18:19;;;;;;;30.83;28.88;;;;;;;23.09;64.16;101097.97;5019723;28;20080;-83
2022/05/21 08:20:50;;;;;;;29.97;28.17;;;;;;;23.13;72.64;101090.06;5018101;28;20077;-84
2022/05/21 08:28:47;;;;;;;32.20;30.50;;;;;;;21.52;83.18;101084.56;5015082;28;20073;-82
2022/05/21 08:31:14;;;;;;;31.65;29.55;;;;;;;21.94;81.26;101081.56;5025974;28;20062;-80
2022/05/21 08:33:43;;;;;;;30.00;28.25;;;;;;;23.50;64.12;101086.81;5022383;28;20058;-80
2022/05/21 08:36:09;;;;;;;33.10;31.02;;;;;;;22.76;68.65;101092.16;5024019;28;20042;-82
2022/05/21 08:38:36;;;;;;;32.47;30.73;;;;;;;23.15;66.67;101082.47;5024863;28;20050;-83
2022/05/21 08:41:06;;;;;;;31.52;29.73;;;;;;;22.45;71.92;101096.88;5023402;28;20053;-82
2022/05/21 08:43:49;;;;;;;31.08;29.15;;;;;;;23.51;63.25;101091.13;5014205;28;20050;-80
2022/05/21 08:46:40;;;;;;;;;;;;;;;;;;;;;
2022/05/21 08:49:22;;;;;;;32.70;30.80;;;;;;;21.95;76.96;101080.47;5022554;28;20057;-78
2022/05/21 08:51:54;;;;;;;32.22;30.33;;;;;;;22.86;69.16;101088.56;5019941;28;20041;-80
2022/05/21 08:54:25;;;;;;;30.60;28.90;;;;;;;24.03;61.13;101084.19;5023473;28;20436;-80
2022/05/21 08:56:55;;;;;;;30.92;29.13;;;;;;;23.44;64.99;101085.25;5019118;28;20112;-83
2022/05/21 08:59:27;;;;;;;31.00;29.20;;;;;;;22.73;77.10;101091.91;5015019;28;20062;-80
2022/05/21 09:01:54;;;;;;;;;;;;;;;22.52;74.11;101083.06;5024136;28;20115;-84
2022/05/21 09:04:26;;;;;;;31.35;29.52;;;;;;;24.14;65.12;101076.75;5021568;28;19965;-83
2022/05/21 09:06:58;;;;;;;31.35;29.45;;;;;;;23.13;68.76;101085.47;5020176;28;20081;-84
2022/05/21 09:09:52;;;;;;;32.70;30.75;;;;;;;24.13;67.05;101083.28;5022410;28;20466;-83
2022/05/21 09:12:52;;;;;;;30.02;28.13;;;;;;;23.60;67.53;101078.63;5022229;28;20111;-80
2022/05/21 09:18:04;;;;;;;29.77;28.02;;;;;;;23.73;65.60;101082.59;5019988;28;20519;-85
2022/05/21 09:20:43;;;;;;;29.77;27.98;;;;;;;24.28;61.41;101079.59;5015683;28;20547;-84
2022/05/21 09:23:11;;;;;;;30.25;28.25;;;;;;;22.48;76.21;101090.09;5015161;28;20045;-84
2022/05/21 09:25:39;;;;;;;29.52;27.63;;;;;;;24.50;66.71;101066.31;5015587;28;20104;-83
2022/05/21 09:28:09;;;;;;;30.90;29.02;;;;;;;24.48;65.01;101070.41;5016829;28;20050;-82
2022/05/21 09:30:40;;;;;;;31.02;29.02;;;;;;;25.04;58.79;101081.31;5017937;28;20382;-84
2022/05/21 09:33:26;;;;;;;30.23;28.33;;;;;;;25.13;62.80;101067.91;5022776;28;20455;-82
2022/05/21 09:36:00;;;;;;;31.48;29.42;;;;;;;24.87;61.81;101073.72;5016806;28;20061;-81
2022/05/21 09:38:30;;;;;;;31.45;29.48;;;;;;;24.31;64.99;101065.44;5022510;28;20462;-80
2022/05/21 09:41:11;;;;;;;31.33;29.33;;;;;;;24.32;63.07;101065.13;5018830;28;20046;-80
2022/05/21 09:46:27;;;;;;;30.63;28.52;;;;;;;24.51;60.18;101051.66;5018916;28;20104;-84
2022/05/21 09:49:12;;;;;;;31.10;29.02;;;;;;;24.76;58.74;101046.97;5020263;28;21309;-84
2022/05/21 09:51:41;;;;;;;30.05;28.25;;;;;;;24.01;60.87;101045.69;5014523;28;20457;-80
2022/05/21 09:54:20;;;;;;;31.30;29.00;;;;;;;22.08;77.30;101045.81;5026532;28;20366;-79
2022/05/21 09:57:09;;;;;;;30.55;28.75;;;;;;;24.19;63.54;101033.28;5017050;28;20445;-84
2022/05/21 09:59:40;;;;;;;31.30;29.52;;;;;;;23.19;63.74;101030.16;5017790;28;20046;-80
2022/05/21 10:02:22;;;;;;;30.27;28.25;;;;;;;24.50;59.20;101030.22;5017449;28;20153;-84
2022/05/21 10:04:54;;;;;;;29.58;27.88;;;;;;;22.94;68.31;101028.44;5016586;28;20541;-80
2022/05/21 10:13:07;;;;;;;29.52;27.80;;;;;;;25.86;53.69;101025.63;5017546;28;20049;-84
2022/05/21 10:15:39;;;;;;;29.13;27.33;;;;;;;24.66;55.54;101018.88;5019691;28;20136;-80
2022/05/21 10:18:14;;;;;;;29.95;28.13;;;;;;;24.37;57.23;101018.13;5030191;28;20061;-80
2022/05/21 10:20:45;;;;;;;29.70;27.90;;;;;;;25.92;50.25;101026.34;5020709;28;20073;-81
2022/05/21 10:23:31;;;;;;;30.70;28.80;;;;;;;25.50;49.13;101015.38;5026544;28;20049;-81
2022/05/21 10:26:14;;;;;;;31.00;29.05;;;;;;;25.55;49.40;101014.50;5014869;28;20111;-84
2022/05/21 10:28:55;;;;;;;28.40;26.70;;;;;;;25.92;44.45;101001.88;5014953;28;20052;-82
2022/05/21 10:31:39;;;;;;;28.70;27.08;;;;;;;26.73;40.55;101000.16;5012526;28;20053;-84
2022/05/21 10:34:22;;;;;;;30.77;29.00;;;;;;;26.53;42.78;100997.09;5020775;28;20159;-84
2022/05/21 10:37:02;;;;;;;30.15;28.25;;;;;;;26.15;46.20;100995.41;5015489;28;20472;-81
2022/05/21 10:39:46;;;;;;;28.98;27.08;;;;;;;26.09;44.84;100993.09;5017381;28;20038;-84
2022/05/21 10:42:26;;;;;;;28.73;26.92;;;;;;;24.95;47.52;100988.00;5022517;28;20042;-81
2022/05/21 10:45:08;;;;;;;29.73;27.92;;;;;;;26.18;41.54;100974.94;5020070;28;20111;-81
2022/05/21 10:47:51;;;;;;;29.02;27.13;;;;;;;26.47;39.47;100967.22;5013622;28;20079;-84
2022/05/21 10:50:27;;;;;;;29.23;27.17;;;;;;;26.62;39.74;100984.34;5022224;28;20129;-84
2022/05/21 10:53:48;;;;;;;28.63;26.70;;;;;;;23.95;52.51;100968.19;5026190;28;20049;-84
2022/05/21 10:56:44;;;;;;;29.77;27.98;;;;;;;26.01;45.08;100967.41;4969334;28;20053;-80
2022/05/21 10:59:26;;;;;;;29.55;27.75;;;;;;;26.07;40.52;100954.50;5007685;28;20492;-80
2022/05/21 11:02:05;;;;;;;31.05;28.85;;;;;;;25.70;47.95;100945.41;5018104;28;20054;-81
2022/05/21 11:05:32;;;;;;;;;;;;;;;;;;;;;
2022/05/21 11:08:10;;;;;;;29.90;27.83;;;;;;;26.61;40.33;100931.78;5016741;28;20054;-83
2022/05/21 11:10:40;;;;;;;29.73;28.00;;;;;;;27.71;38.37;100938.53;5019162;28;20473;-86
2022/05/21 11:13:13;;;;;;;30.02;28.15;;;;;;;27.64;38.18;100932.72;5017384;28;20056;-84
2022/05/21 11:15:47;;;;;;;29.63;27.90;;;;;;;27.30;39.58;100922.50;5021727;28;20123;-84
2022/05/21 11:18:20;;;;;;;29.30;27.60;;;;;;;27.22;39.77;100909.63;5021575;28;20508;-83
2022/05/21 11:20:59;;;;;;;30.35;28.35;;;;;;;27.14;41.13;100902.97;5016907;28;20382;-81
2022/05/21 11:23:40;;;;;;;29.25;27.35;;;;;;;28.15;38.87;100908.63;5014733;28;20042;-84
2022/05/21 11:26:12;;;;;;;29.60;27.70;;;;;;;27.90;36.57;100902.00;5013243;28;20484;-84
2022/05/21 11:28:49;;;;;;;30.27;28.17;;;;;;;27.74;39.21;100896.97;5016726;28;20057;-81
2022/05/21 11:37:22;;;;;;;28.48;26.38;;;;;;;27.51;36.42;100881.84;5016651;28;20127;-83
2022/05/21 11:39:51;;;;;;;30.20;28.25;;;;;;;28.05;33.66;100869.59;5017258;28;20042;-84
2022/05/21 11:42:22;;;;;;;33.08;30.98;;;;;;;28.76;32.52;100863.00;5019429;28;20050;-84
2022/05/21 11:44:59;;;;;;;29.80;27.80;;;;;;;27.34;37.16;100855.28;5018475;28;20073;-81
2022/05/21 11:47:43;;;;;;;27.88;25.90;;;;;;;28.03;30.55;100854.66;5014041;28;20104;-82
2022/05/21 11:50:16;;;;;;;29.05;27.25;;;;;;;26.88;38.92;100853.78;5025203;28;20053;-84
2022/05/21 11:53:06;;;;;;;28.85;27.10;;;;;;;27.21;37.15;100854.28;5013752;28;20049;-85
2022/05/21 11:55:58;;;;;;;30.30;28.23;;;;;;;27.55;38.84;100856.31;5018730;28;20042;-81
2022/05/21 11:59:08;;;;;;;29.90;27.52;;;;;;;28.36;32.29;100851.47;5019535;28;20060;-81
2022/05/21 12:02:00;;;;;;;29.08;27.17;;;;;;;28.37;32.67;100848.41;5018517;28;20042;-84
2022/05/21 12:04:51;;;;;;;29.00;27.00;;;;;;;28.02;31.49;100851.16;5018133;28;20472;-80
2022/05/21 12:07:56;;;;;;;28.40;26.50;;;;;;;27.69;31.24;100849.94;5009947;28;20465;-83
2022/05/21 12:10:32;;;;;;;26.90;24.80;;;;;;;27.35;37.88;100852.25;5018070;28;20497;-79
2022/05/21 12:13:13;;;;;;;29.02;26.92;;;;;;;27.46;33.71;100841.06;5015145;28;20054;-80
2022/05/21 12:15:42;;;;;;;27.30;25.40;;;;;;;28.47;30.45;100839.09;5019445;28;20096;-81
2022/05/21 12:18:37;;;;;;;27.05;25.15;;;;;;;27.91;29.78;100840.84;5018941;28;20118;-83
2022/05/21 12:21:06;;;;;;;26.13;24.23;;;;;;;27.21;29.45;100828.97;5021006;28;20064;-83
2022/05/21 12:24:02;;;;;;;27.48;25.30;;;;;;;27.78;29.34;100840.69;5020965;28;20072;-84
2022/05/21 12:26:31;;;;;;;27.75;25.65;;;;;;;28.61;30.97;100836.19;5022117;28;20456;-81
2022/05/21 12:29:09;;;;;;;28.30;26.30;;;;;;;27.45;36.68;100842.19;5023946;28;20459;-84
2022/05/21 12:31:41;;;;;;;28.40;26.35;;;;;;;26.89;35.49;100830.84;5014961;28;20046;-82
2022/05/21 12:34:31;;;;;;;28.73;26.65;;;;;;;27.86;32.68;100830.88;5017081;28;20038;-84
2022/05/21 12:37:07;;;;;;;28.13;26.17;;;;;;;27.83;33.99;100835.06;5013144;28;20054;-85